FLT555 TIST-TJSJ
Flight info
| Callsign | FLT555 |
|---|---|
| Flight time | 0h 29m |
| Altitude | 6000 |
| Route | PALCO RTE6 CHAKA DCT SNGRA DCT REKUA DCT SJU |
| Aircraft | C408/L-VGD/C |
Departure
| Time | 2026-04-26 02:58 |
|---|---|
| Airport | Cyril E. King Airport (TIST) |
Arrival
| Time | 2026-04-26 03:27 |
|---|---|
| Airport | Luis Munoz Marin International Airport (TJSJ) |
| Time | Latitude | Longitude | Altitude | Speed | Heading |
|---|---|---|---|---|---|
| 2026-04-26 02:35 | 18.33900 | -64.96567 | 10 ft | 0 kts | 184° |
| 2026-04-26 02:51 | 18.33896 | -64.96568 | 10 ft | 1 kts | 208° |
| 2026-04-26 02:51 | 18.33903 | -64.96603 | 10 ft | 9 kts | 294° |
| 2026-04-26 02:52 | 18.33907 | -64.96684 | 10 ft | 14 kts | 263° |
| 2026-04-26 02:52 | 18.33871 | -64.96698 | 10 ft | 7 kts | 185° |
| 2026-04-26 02:52 | 18.33837 | -64.96741 | 10 ft | 10 kts | 265° |
| 2026-04-26 02:52 | 18.33833 | -64.96828 | 11 ft | 14 kts | 267° |
| 2026-04-26 02:53 | 18.33828 | -64.96940 | 12 ft | 17 kts | 268° |
| 2026-04-26 02:53 | 18.33822 | -64.97074 | 14 ft | 20 kts | 266° |
| 2026-04-26 02:53 | 18.33816 | -64.97229 | 15 ft | 23 kts | 268° |
| 2026-04-26 02:53 | 18.33809 | -64.97392 | 16 ft | 15 kts | 264° |
| 2026-04-26 02:54 | 18.33777 | -64.97432 | 17 ft | 8 kts | 224° |
| 2026-04-26 02:54 | 18.33734 | -64.97482 | 20 ft | 11 kts | 243° |
| 2026-04-26 02:54 | 18.33722 | -64.97571 | 19 ft | 14 kts | 267° |
| 2026-04-26 02:54 | 18.33715 | -64.97689 | 18 ft | 19 kts | 266° |
| 2026-04-26 02:55 | 18.33708 | -64.97841 | 17 ft | 23 kts | 269° |
| 2026-04-26 02:55 | 18.33703 | -64.97966 | 18 ft | 13 kts | 268° |
| 2026-04-26 02:55 | 18.33714 | -64.98060 | 19 ft | 10 kts | 298° |
| 2026-04-26 02:55 | 18.33698 | -64.98082 | 18 ft | 1 kts | 103° |
| 2026-04-26 02:56 | 18.33698 | -64.98079 | 18 ft | 0 kts | 88° |
| 2026-04-26 02:56 | 18.33698 | -64.98078 | 18 ft | 0 kts | 88° |
| 2026-04-26 02:56 | 18.33698 | -64.98075 | 18 ft | 5 kts | 88° |
| 2026-04-26 02:56 | 18.33703 | -64.97947 | 17 ft | 30 kts | 88° |
| 2026-04-26 02:57 | 18.33718 | -64.97649 | 19 ft | 50 kts | 90° |
| 2026-04-26 02:57 | 18.33726 | -64.97460 | 18 ft | 41 kts | 88° |
| 2026-04-26 02:57 | 18.33751 | -64.96912 | 11 ft | 106 kts | 87° |
| 2026-04-26 02:57 | 18.33772 | -64.96046 | 310 ft | 123 kts | 93° |
| 2026-04-26 02:58 | 18.33410 | -64.95263 | 629 ft | 127 kts | 146° |
| 2026-04-26 02:58 | 18.32556 | -64.95126 | 993 ft | 132 kts | 191° |
| 2026-04-26 02:58 | 18.31716 | -64.95566 | 1404 ft | 140 kts | 216° |
| 2026-04-26 02:58 | 18.31207 | -64.96489 | 1780 ft | 146 kts | 246° |
| 2026-04-26 02:59 | 18.30862 | -64.97461 | 2336 ft | 140 kts | 248° |
| 2026-04-26 02:59 | 18.30376 | -64.98348 | 2749 ft | 142 kts | 233° |
| 2026-04-26 02:59 | 18.29837 | -64.99247 | 3120 ft | 148 kts | 236° |
| 2026-04-26 02:59 | 18.29275 | -65.00172 | 3491 ft | 152 kts | 236° |
| 2026-04-26 03:00 | 18.28693 | -65.01114 | 3861 ft | 154 kts | 236° |
| 2026-04-26 03:00 | 18.28100 | -65.02062 | 4231 ft | 155 kts | 236° |
| 2026-04-26 03:00 | 18.27495 | -65.03011 | 4601 ft | 156 kts | 236° |
| 2026-04-26 03:00 | 18.26884 | -65.03956 | 4966 ft | 156 kts | 236° |
| 2026-04-26 03:01 | 18.26279 | -65.04891 | 5325 ft | 156 kts | 236° |
| 2026-04-26 03:01 | 18.25822 | -65.05915 | 5674 ft | 157 kts | 259° |
| 2026-04-26 03:01 | 18.25814 | -65.07067 | 5983 ft | 163 kts | 278° |
| 2026-04-26 03:01 | 18.26077 | -65.08293 | 6006 ft | 179 kts | 281° |
| 2026-04-26 03:02 | 18.26350 | -65.09612 | 6001 ft | 187 kts | 280° |
| 2026-04-26 03:02 | 18.26625 | -65.10961 | 6000 ft | 190 kts | 280° |
| 2026-04-26 03:02 | 18.26892 | -65.12287 | 5998 ft | 181 kts | 281° |
| 2026-04-26 03:02 | 18.27153 | -65.13574 | 5992 ft | 179 kts | 281° |
| 2026-04-26 03:03 | 18.27412 | -65.14851 | 5988 ft | 178 kts | 281° |
| 2026-04-26 03:03 | 18.27670 | -65.16131 | 5986 ft | 179 kts | 281° |
| 2026-04-26 03:03 | 18.27929 | -65.17410 | 5984 ft | 179 kts | 281° |
| 2026-04-26 03:03 | 18.28187 | -65.18689 | 5992 ft | 179 kts | 281° |
| 2026-04-26 03:04 | 18.28445 | -65.19967 | 5991 ft | 179 kts | 281° |
| 2026-04-26 03:04 | 18.28704 | -65.21247 | 5993 ft | 179 kts | 281° |
| 2026-04-26 03:04 | 18.28959 | -65.22512 | 5991 ft | 179 kts | 281° |
| 2026-04-26 03:04 | 18.29217 | -65.23789 | 5989 ft | 179 kts | 281° |
| 2026-04-26 03:05 | 18.29481 | -65.25068 | 5988 ft | 178 kts | 281° |
| 2026-04-26 03:05 | 18.29746 | -65.26339 | 5987 ft | 178 kts | 281° |
| 2026-04-26 03:05 | 18.30015 | -65.27606 | 5988 ft | 177 kts | 281° |
| 2026-04-26 03:05 | 18.30270 | -65.28866 | 5987 ft | 176 kts | 280° |
| 2026-04-26 03:06 | 18.30530 | -65.30122 | 5995 ft | 176 kts | 280° |
| 2026-04-26 03:06 | 18.30790 | -65.31386 | 5995 ft | 178 kts | 281° |
| 2026-04-26 03:06 | 18.31052 | -65.32657 | 5995 ft | 178 kts | 281° |
| 2026-04-26 03:06 | 18.31317 | -65.33931 | 5995 ft | 178 kts | 281° |
| 2026-04-26 03:07 | 18.31581 | -65.35209 | 5995 ft | 178 kts | 280° |
| 2026-04-26 03:07 | 18.31840 | -65.36465 | 5998 ft | 178 kts | 280° |
| 2026-04-26 03:07 | 18.32103 | -65.37739 | 5997 ft | 178 kts | 280° |
| 2026-04-26 03:07 | 18.32364 | -65.39014 | 5997 ft | 178 kts | 281° |
| 2026-04-26 03:08 | 18.32629 | -65.40291 | 5995 ft | 179 kts | 281° |
| 2026-04-26 03:08 | 18.32893 | -65.41571 | 5994 ft | 178 kts | 281° |
| 2026-04-26 03:08 | 18.33156 | -65.42846 | 5994 ft | 178 kts | 281° |
| 2026-04-26 03:08 | 18.33419 | -65.44123 | 5995 ft | 178 kts | 281° |
| 2026-04-26 03:09 | 18.33680 | -65.45392 | 5994 ft | 179 kts | 281° |
| 2026-04-26 03:09 | 18.33943 | -65.46670 | 5995 ft | 179 kts | 281° |
| 2026-04-26 03:09 | 18.34208 | -65.47954 | 5997 ft | 179 kts | 281° |
| 2026-04-26 03:09 | 18.34472 | -65.49231 | 6001 ft | 178 kts | 280° |
| 2026-04-26 03:10 | 18.34734 | -65.50508 | 6000 ft | 178 kts | 280° |
| 2026-04-26 03:10 | 18.34995 | -65.51781 | 6000 ft | 177 kts | 280° |
| 2026-04-26 03:10 | 18.35256 | -65.53050 | 5999 ft | 177 kts | 280° |
| 2026-04-26 03:10 | 18.35429 | -65.53892 | 5999 ft | 177 kts | 280° |
| 2026-04-26 03:11 | 18.35774 | -65.55573 | 6000 ft | 177 kts | 280° |
| 2026-04-26 03:11 | 18.36035 | -65.56842 | 5999 ft | 177 kts | 280° |
| 2026-04-26 03:11 | 18.36295 | -65.58108 | 6000 ft | 177 kts | 280° |
| 2026-04-26 03:11 | 18.36554 | -65.59374 | 5999 ft | 177 kts | 280° |
| 2026-04-26 03:12 | 18.36726 | -65.60212 | 6001 ft | 177 kts | 280° |
| 2026-04-26 03:12 | 18.36987 | -65.61486 | 6000 ft | 178 kts | 281° |
| 2026-04-26 03:12 | 18.37247 | -65.62756 | 6000 ft | 177 kts | 281° |
| 2026-04-26 03:12 | 18.37508 | -65.64027 | 6000 ft | 177 kts | 281° |
| 2026-04-26 03:13 | 18.37768 | -65.65300 | 6001 ft | 178 kts | 281° |
| 2026-04-26 03:13 | 18.38028 | -65.66572 | 6000 ft | 178 kts | 281° |
| 2026-04-26 03:13 | 18.38287 | -65.67844 | 6001 ft | 178 kts | 281° |
| 2026-04-26 03:13 | 18.38546 | -65.69117 | 6001 ft | 178 kts | 281° |
| 2026-04-26 03:14 | 18.38803 | -65.70375 | 6000 ft | 178 kts | 281° |
| 2026-04-26 03:14 | 18.39064 | -65.71651 | 5999 ft | 178 kts | 281° |
| 2026-04-26 03:14 | 18.39325 | -65.72929 | 6000 ft | 179 kts | 281° |
| 2026-04-26 03:14 | 18.39585 | -65.74205 | 6001 ft | 178 kts | 281° |
| 2026-04-26 03:15 | 18.39844 | -65.75478 | 6003 ft | 178 kts | 281° |
| 2026-04-26 03:15 | 18.39986 | -65.76762 | 5996 ft | 176 kts | 264° |
| 2026-04-26 03:15 | 18.39759 | -65.78030 | 5997 ft | 177 kts | 258° |
| 2026-04-26 03:15 | 18.39524 | -65.79307 | 5999 ft | 178 kts | 258° |
| 2026-04-26 03:16 | 18.39288 | -65.80587 | 5986 ft | 174 kts | 258° |
| 2026-04-26 03:16 | 18.39068 | -65.81773 | 5922 ft | 164 kts | 259° |
| 2026-04-26 03:16 | 18.38847 | -65.82960 | 5868 ft | 165 kts | 258° |
| 2026-04-26 03:16 | 18.38624 | -65.84144 | 5814 ft | 164 kts | 258° |
| 2026-04-26 03:17 | 18.38404 | -65.85327 | 5761 ft | 165 kts | 258° |
| 2026-04-26 03:17 | 18.38182 | -65.86518 | 5715 ft | 165 kts | 258° |
| 2026-04-26 03:17 | 18.37961 | -65.87703 | 5665 ft | 164 kts | 258° |
| 2026-04-26 03:17 | 18.37741 | -65.88882 | 5614 ft | 164 kts | 258° |
| 2026-04-26 03:18 | 18.37522 | -65.90057 | 5491 ft | 156 kts | 258° |
| 2026-04-26 03:18 | 18.37321 | -65.91139 | 5354 ft | 147 kts | 258° |
| 2026-04-26 03:18 | 18.37127 | -65.92170 | 5211 ft | 145 kts | 258° |
| 2026-04-26 03:18 | 18.36933 | -65.93209 | 5086 ft | 144 kts | 258° |
| 2026-04-26 03:19 | 18.36739 | -65.94247 | 4958 ft | 145 kts | 258° |
| 2026-04-26 03:19 | 18.36563 | -65.95285 | 4831 ft | 144 kts | 265° |
| 2026-04-26 03:19 | 18.36492 | -65.96333 | 4718 ft | 142 kts | 264° |
| 2026-04-26 03:19 | 18.36476 | -65.97379 | 4581 ft | 143 kts | 269° |
| 2026-04-26 03:20 | 18.36474 | -65.98429 | 4456 ft | 143 kts | 269° |
| 2026-04-26 03:20 | 18.36468 | -65.99481 | 4336 ft | 144 kts | 269° |
| 2026-04-26 03:20 | 18.36459 | -66.00519 | 4212 ft | 144 kts | 269° |
| 2026-04-26 03:20 | 18.36449 | -66.01571 | 4090 ft | 143 kts | 269° |
| 2026-04-26 03:21 | 18.36437 | -66.02622 | 3967 ft | 144 kts | 269° |
| 2026-04-26 03:21 | 18.36424 | -66.03674 | 3842 ft | 144 kts | 269° |
| 2026-04-26 03:21 | 18.36408 | -66.04736 | 3675 ft | 146 kts | 269° |
| 2026-04-26 03:21 | 18.36389 | -66.05808 | 3509 ft | 146 kts | 269° |
| 2026-04-26 03:22 | 18.36369 | -66.06882 | 3343 ft | 147 kts | 269° |
| 2026-04-26 03:22 | 18.36347 | -66.07958 | 3175 ft | 147 kts | 269° |
| 2026-04-26 03:22 | 18.36324 | -66.09031 | 3002 ft | 146 kts | 269° |
| 2026-04-26 03:22 | 18.36380 | -66.10092 | 2816 ft | 145 kts | 290° |
| 2026-04-26 03:23 | 18.37080 | -66.10798 | 2634 ft | 143 kts | 343° |
| 2026-04-26 03:23 | 18.38039 | -66.10886 | 2478 ft | 139 kts | 358° |
| 2026-04-26 03:23 | 18.39009 | -66.10919 | 2320 ft | 139 kts | 358° |
| 2026-04-26 03:23 | 18.39983 | -66.10946 | 2152 ft | 140 kts | 358° |
| 2026-04-26 03:24 | 18.40952 | -66.10970 | 2013 ft | 138 kts | 358° |
| 2026-04-26 03:24 | 18.41885 | -66.10990 | 2004 ft | 132 kts | 358° |
| 2026-04-26 03:24 | 18.42806 | -66.11011 | 1900 ft | 135 kts | 358° |
| 2026-04-26 03:24 | 18.43713 | -66.10790 | 1710 ft | 140 kts | 37° |
| 2026-04-26 03:25 | 18.44117 | -66.09896 | 1529 ft | 143 kts | 89° |
| 2026-04-26 03:25 | 18.44028 | -66.08896 | 1490 ft | 134 kts | 96° |
| 2026-04-26 03:25 | 18.43808 | -66.07950 | 1264 ft | 125 kts | 105° |
| 2026-04-26 03:25 | 18.43600 | -66.07074 | 1081 ft | 124 kts | 101° |
| 2026-04-26 03:26 | 18.43461 | -66.06186 | 935 ft | 121 kts | 98° |
| 2026-04-26 03:26 | 18.43388 | -66.05313 | 829 ft | 118 kts | 93° |
| 2026-04-26 03:26 | 18.43353 | -66.04443 | 673 ft | 122 kts | 90° |
| 2026-04-26 03:26 | 18.43349 | -66.03538 | 458 ft | 124 kts | 89° |
| 2026-04-26 03:27 | 18.43367 | -66.02637 | 284 ft | 122 kts | 90° |
| 2026-04-26 03:27 | 18.43356 | -66.01755 | 140 ft | 120 kts | 90° |
| 2026-04-26 03:27 | 18.43358 | -66.00893 | 28 ft | 117 kts | 89° |
| 2026-04-26 03:27 | 18.43360 | -66.00287 | 14 ft | 46 kts | 92° |
| 2026-04-26 03:28 | 18.43357 | -66.00053 | 16 ft | 23 kts | 87° |
| 2026-04-26 03:28 | 18.43389 | -65.99949 | 18 ft | 17 kts | 65° |
| 2026-04-26 03:28 | 18.43450 | -65.99908 | 16 ft | 10 kts | 314° |
| 2026-04-26 03:28 | 18.43462 | -65.99996 | 16 ft | 15 kts | 269° |
| 2026-04-26 03:29 | 18.43462 | -66.00121 | 15 ft | 19 kts | 270° |
| 2026-04-26 03:29 | 18.43476 | -66.00218 | 15 ft | 7 kts | 333° |
| 2026-04-26 03:29 | 18.43542 | -66.00226 | 15 ft | 12 kts | 358° |
| 2026-04-26 03:29 | 18.43589 | -66.00275 | 16 ft | 3 kts | 331° |
| 2026-04-26 03:30 | 18.43615 | -66.00271 | 16 ft | 6 kts | 12° |
| 2026-04-26 03:30 | 18.43618 | -66.00271 | 16 ft | 0 kts | 12° |